Time;durP1;ratioP1;P1;durP2;ratioP2;P2;SDS_P1;SDS_P2;PMS_P1;PMS_P2;Temp;Humidity;BMP_temperature;BMP_pressure;BME280_temperature;BME280_humidity;BME280_pressure;Samples;Min_cycle;Max_cycle;Signal;HPM_P1;HPM_P2
2023/03/10 00:00:00;;;;;;;5.18;3.72;;;;;;;15.08;46.81;98904.19;5022119;28;20057;-36
2023/03/10 00:02:32;;;;;;;5.57;3.78;;;;;;;15.08;47.36;98899.69;5024154;28;20053;-38
2023/03/10 00:04:58;;;;;;;5.25;3.30;;;;;;;15.08;46.80;98899.69;5022541;28;20742;-36
2023/03/10 00:07:25;;;;;;;5.72;3.33;;;;;;;15.07;47.56;98900.66;5026997;28;20053;-36
2023/03/10 00:09:52;;;;;;;5.38;3.42;;;;;;;15.07;46.56;98892.66;5026735;28;20049;-36
2023/03/10 00:12:18;;;;;;;4.97;3.10;;;;;;;15.05;47.11;98894.69;5024234;28;20061;-36
2023/03/10 00:14:45;;;;;;;6.22;3.15;;;;;;;15.04;46.60;98903.72;5022105;28;20049;-37
2023/03/10 00:17:11;;;;;;;6.20;3.00;;;;;;;15.06;46.60;98907.03;5027428;28;20045;-36
2023/03/10 00:19:38;;;;;;;5.43;3.30;;;;;;;15.04;46.83;98904.56;5020493;28;20157;-35
2023/03/10 00:22:05;;;;;;;5.05;2.90;;;;;;;15.04;46.55;98903.72;5023235;28;20054;-36
2023/03/10 00:24:32;;;;;;;4.75;3.20;;;;;;;15.03;47.33;98912.72;5021628;28;20352;-36
2023/03/10 00:26:58;;;;;;;4.82;2.80;;;;;;;15.03;46.72;98913.56;5020538;28;20049;-36
2023/03/10 00:29:25;;;;;;;4.28;2.80;;;;;;;15.02;46.92;98908.41;5024193;28;20045;-35
2023/03/10 00:31:51;;;;;;;4.50;2.92;;;;;;;15.02;47.03;98906.56;5023813;28;20054;-36
2023/03/10 00:34:18;;;;;;;4.50;2.70;;;;;;;15.02;46.91;98911.06;5018018;28;20235;-35
2023/03/10 00:36:44;;;;;;;4.95;3.17;;;;;;;15.02;46.57;98914.56;5018746;28;20058;-35
2023/03/10 00:39:11;;;;;;;6.05;3.17;;;;;;;15.02;47.27;98913.72;5023319;28;20379;-36
2023/03/10 00:41:38;;;;;;;5.90;3.05;;;;;;;15.02;47.04;98905.72;5017999;28;20344;-36
2023/03/10 00:44:08;;;;;;;4.72;2.67;;;;;;;15.00;46.74;98897.91;5020415;28;20149;-35
2023/03/10 00:46:37;;;;;;;4.25;2.58;;;;;;;15.02;47.22;98895.06;5023603;28;20045;-36
2023/03/10 00:49:10;;;;;;;4.35;2.75;;;;;;;15.01;47.57;98901.41;5024280;28;20049;-36
2023/03/10 00:51:37;;;;;;;5.05;3.00;;;;;;;15.00;46.97;98897.09;5023362;28;20111;-36
2023/03/10 00:54:03;;;;;;;4.78;2.60;;;;;;;15.00;46.73;98897.91;5023261;28;20057;-35
2023/03/10 00:56:30;;;;;;;4.97;2.72;;;;;;;15.01;47.26;98888.06;5022725;28;20050;-36
2023/03/10 00:58:58;;;;;;;4.95;2.72;;;;;;;14.99;46.85;98890.06;5021215;28;20046;-36
2023/03/10 01:01:31;;;;;;;4.57;2.53;;;;;;;15.00;46.82;98895.25;5024132;28;20065;-37
2023/03/10 01:04:01;;;;;;;5.05;2.83;;;;;;;15.01;46.68;98898.75;5018872;28;20077;-36
2023/03/10 01:06:28;;;;;;;6.38;2.95;;;;;;;15.00;46.61;98897.91;5022128;28;20049;-39
2023/03/10 01:08:54;;;;;;;3.33;2.30;;;;;;;14.99;47.39;98895.41;5023684;28;20707;-36
2023/03/10 01:11:24;;;;;;;4.97;3.00;;;;;;;14.99;47.47;98895.41;5021960;28;20065;-35
2023/03/10 01:13:51;;;;;;;5.20;2.63;;;;;;;14.99;46.52;98882.06;5023823;28;20044;-37
2023/03/10 01:16:18;;;;;;;3.83;2.30;;;;;;;14.99;47.09;98876.75;5026566;28;20098;-36
2023/03/10 01:18:45;;;;;;;3.95;2.42;;;;;;;14.98;46.64;98872.44;5024748;28;20049;-37
2023/03/10 01:21:27;;;;;;;4.32;2.60;;;;;;;14.96;47.45;98875.28;5024034;28;20108;-36
2023/03/10 01:23:54;;;;;;;4.25;2.33;;;;;;;14.97;46.77;98868.09;5023519;28;20149;-37
2023/03/10 01:26:20;;;;;;;4.32;2.45;;;;;;;14.97;46.84;98866.25;5024176;28;20050;-37
2023/03/10 01:28:48;;;;;;;4.15;2.20;;;;;;;14.96;47.16;98866.47;5024178;28;20265;-37
2023/03/10 01:31:15;;;;;;;3.08;2.13;;;;;;;14.96;47.38;98861.13;5024566;28;20051;-36
2023/03/10 01:33:42;;;;;;;3.65;2.25;;;;;;;14.95;47.04;98864.78;5022383;28;20402;-37
2023/03/10 01:36:11;;;;;;;4.85;2.83;;;;;;;14.94;47.56;98858.63;5020141;28;20050;-36
2023/03/10 01:38:38;;;;;;;3.72;2.47;;;;;;;14.93;47.23;98853.47;5023373;28;20088;-36
2023/03/10 01:41:05;;;;;;;4.20;2.42;;;;;;;14.92;46.83;98851.81;5022314;28;20052;-36
2023/03/10 01:43:34;;;;;;;3.15;2.13;;;;;;;14.92;47.40;98841.16;5022541;28;20144;-36
2023/03/10 01:46:01;;;;;;;2.85;1.90;;;;;;;14.91;46.66;98842.97;5026686;28;20357;-36
2023/03/10 01:48:31;;;;;;;2.88;2.03;;;;;;;14.91;47.17;98844.81;5024365;28;20053;-36
2023/03/10 01:50:58;;;;;;;4.20;2.10;;;;;;;14.90;47.47;98841.31;5025235;28;20049;-36
2023/03/10 01:53:27;;;;;;;3.92;1.98;;;;;;;14.90;46.76;98832.50;5023868;28;20059;-37
2023/03/10 01:55:58;;;;;;;3.47;2.08;;;;;;;14.89;47.13;98833.50;5023265;28;20561;-36
2023/03/10 01:58:31;;;;;;;4.07;1.83;;;;;;;14.89;47.12;98834.34;5023963;28;20045;-36
2023/03/10 02:00:57;;;;;;;3.38;1.95;;;;;;;14.89;46.96;98830.84;5024586;28;20060;-37
2023/03/10 02:03:36;;;;;;;2.55;1.73;;;;;;;14.88;47.40;98826.53;5023462;28;20050;-36
2023/03/10 02:06:09;;;;;;;3.60;2.10;;;;;;;14.88;47.31;98829.19;5026909;28;20056;-39
2023/03/10 02:08:41;;;;;;;3.13;1.98;;;;;;;14.87;46.52;98822.19;5019651;28;20057;-37
2023/03/10 02:11:10;;;;;;;4.38;2.05;;;;;;;14.88;46.99;98818.53;5024386;28;20496;-36
2023/03/10 02:13:37;;;;;;;2.97;1.65;;;;;;;14.86;47.74;98805.34;5021808;28;20042;-37
2023/03/10 02:16:04;;;;;;;2.45;1.75;;;;;;;14.86;47.02;98817.88;5022345;28;20072;-36
2023/03/10 02:18:31;;;;;;;3.00;2.03;;;;;;;14.85;46.69;98818.88;5019446;28;20144;-36
2023/03/10 02:21:12;;;;;;;2.97;1.63;;;;;;;14.85;46.67;98818.88;5017217;28;20045;-35
2023/03/10 02:23:57;;;;;;;3.10;1.85;;;;;;;14.82;47.38;98826.22;5014868;28;20460;-36
2023/03/10 02:26:33;;;;;;;3.53;1.90;;;;;;;14.83;47.40;98813.72;5021603;28;20058;-35
2023/03/10 02:29:02;;;;;;;2.25;1.80;;;;;;;14.83;47.55;98811.03;5022632;28;20460;-35
2023/03/10 02:31:30;;;;;;;2.45;1.60;;;;;;;14.82;46.69;98810.22;5029897;28;20050;-36
2023/03/10 02:33:57;;;;;;;2.35;1.83;;;;;;;14.82;46.59;98804.06;5021031;28;20057;-36
2023/03/10 02:36:24;;;;;;;2.70;1.90;;;;;;;14.81;46.77;98797.91;5022727;28;20372;-35
2023/03/10 02:38:50;;;;;;;3.10;2.00;;;;;;;14.81;47.45;98803.25;5021108;28;20056;-35
2023/03/10 02:41:25;;;;;;;3.10;1.77;;;;;;;14.80;47.75;98800.78;5021096;28;20050;-36
2023/03/10 02:43:53;;;;;;;2.40;1.88;;;;;;;14.80;46.85;98784.78;5016714;28;20057;-35
2023/03/10 02:46:21;;;;;;;3.63;1.73;;;;;;;14.80;47.63;98772.25;5018535;28;20050;-36
2023/03/10 02:48:47;;;;;;;2.65;1.67;;;;;;;14.80;47.54;98769.59;5020768;28;20050;-36
2023/03/10 02:51:25;;;;;;;2.72;1.70;;;;;;;14.80;47.51;98771.44;5021253;28;20050;-37
2023/03/10 02:53:51;;;;;;;3.08;2.05;;;;;;;14.80;46.76;98774.09;5021303;28;20434;-38
2023/03/10 02:56:18;;;;;;;3.17;1.88;;;;;;;14.78;47.18;98776.94;5024671;28;20049;-37
2023/03/10 02:58:44;;;;;;;2.30;1.58;;;;;;;14.79;46.86;98775.09;5022182;28;20374;-36
2023/03/10 03:01:11;;;;;;;2.42;1.52;;;;;;;14.78;47.63;98778.78;5025768;28;20049;-36
2023/03/10 03:03:38;;;;;;;2.80;1.67;;;;;;;14.77;47.51;98774.47;5023066;28;20048;-36
2023/03/10 03:06:05;;;;;;;2.63;1.55;;;;;;;14.78;47.30;98776.09;5023377;28;20341;-36
2023/03/10 03:08:32;;;;;;;2.75;1.55;;;;;;;14.78;47.29;98773.44;5022184;28;20050;-36
2023/03/10 03:11:00;;;;;;;2.53;1.67;;;;;;;14.77;47.15;98775.28;5021221;28;20065;-36
2023/03/10 03:13:26;;;;;;;2.00;1.30;;;;;;;14.77;46.87;98769.13;5020982;28;20048;-37
2023/03/10 03:15:53;;;;;;;2.30;1.80;;;;;;;14.76;47.26;98764.81;5024744;28;20053;-36
2023/03/10 03:18:19;;;;;;;2.55;1.50;;;;;;;14.76;46.73;98772.81;5018601;28;20062;-36
2023/03/10 03:20:46;;;;;;;2.50;1.70;;;;;;;14.76;47.18;98770.97;5022755;28;20052;-36
2023/03/10 03:23:13;;;;;;;1.98;1.40;;;;;;;14.77;47.13;98771.78;5021593;28;20061;-37
2023/03/10 03:25:40;;;;;;;2.00;1.38;;;;;;;14.76;47.51;98760.31;5024043;28;20054;-37
2023/03/10 03:28:09;;;;;;;1.65;1.30;;;;;;;14.76;46.81;98768.31;5025010;28;20045;-35
2023/03/10 03:30:36;;;;;;;2.75;1.63;;;;;;;14.76;47.43;98776.31;5024717;28;20053;-36
2023/03/10 03:33:04;;;;;;;2.00;1.27;;;;;;;14.75;47.56;98769.31;5023041;28;20052;-35
2023/03/10 03:35:33;;;;;;;1.80;1.30;;;;;;;14.75;46.83;98764.00;5026621;28;20148;-37
2023/03/10 03:38:00;;;;;;;2.95;1.45;;;;;;;14.75;47.51;98768.47;5025274;28;20384;-35
2023/03/10 03:40:32;;;;;;;2.28;1.50;;;;;;;14.74;47.71;98764.97;5027527;28;20417;-36
2023/03/10 03:42:59;;;;;;;2.33;1.60;;;;;;;14.75;47.63;98774.66;5029786;28;20055;-35
2023/03/10 03:45:28;;;;;;;2.50;1.65;;;;;;;14.75;47.77;98776.47;5025442;28;20145;-36
2023/03/10 03:47:55;;;;;;;2.47;1.50;;;;;;;14.73;47.54;98771.31;5022909;28;20452;-36
2023/03/10 03:50:22;;;;;;;1.98;1.60;;;;;;;14.73;47.14;98774.00;5025474;28;20061;-36
2023/03/10 03:52:49;;;;;;;2.78;1.52;;;;;;;14.73;47.54;98771.31;5024037;28;20046;-36
2023/03/10 03:55:17;;;;;;;2.05;1.55;;;;;;;14.72;47.64;98772.34;5021955;28;20056;-36
2023/03/10 03:57:44;;;;;;;1.65;1.27;;;;;;;14.73;47.45;98776.66;5024340;28;20060;-37
2023/03/10 04:00:19;;;;;;;1.90;1.42;;;;;;;14.72;47.08;98771.53;5024804;28;20049;-35
2023/03/10 04:02:46;;;;;;;1.85;1.35;;;;;;;14.74;46.83;98766.81;5025296;28;20041;-36
2023/03/10 04:05:12;;;;;;;2.70;1.05;;;;;;;14.73;47.23;98770.50;5022659;28;20084;-35
2023/03/10 04:07:40;;;;;;;2.65;1.52;;;;;;;14.72;47.49;98772.34;5022759;28;20441;-36
2023/03/10 04:10:11;;;;;;;1.73;1.13;;;;;;;14.72;47.65;98772.34;5023012;28;20448;-37
2023/03/10 04:12:37;;;;;;;3.35;1.65;;;;;;;14.72;47.56;98771.53;5027781;28;20176;-36
2023/03/10 04:15:05;;;;;;;1.58;1.30;;;;;;;14.71;46.84;98765.38;5023796;28;20050;-39
2023/03/10 04:17:32;;;;;;;2.13;1.35;;;;;;;14.71;46.95;98770.69;5026207;28;20053;-39
2023/03/10 04:19:59;;;;;;;1.55;1.17;;;;;;;14.70;47.32;98761.03;5027941;28;20077;-37
2023/03/10 04:22:33;;;;;;;1.67;1.23;;;;;;;14.68;47.32;98764.91;5027902;28;20048;-38
2023/03/10 04:24:59;;;;;;;1.92;1.20;;;;;;;14.69;47.60;98767.38;5024364;28;20037;-36
2023/03/10 04:27:26;;;;;;;1.92;1.20;;;;;;;14.68;47.17;98772.91;5023664;28;20117;-35
2023/03/10 04:29:53;;;;;;;1.48;1.00;;;;;;;14.67;46.81;98758.72;5022108;28;20045;-34
2023/03/10 04:32:19;;;;;;;1.70;1.20;;;;;;;14.67;47.37;98760.56;5031131;28;20057;-36
2023/03/10 04:34:46;;;;;;;1.92;1.50;;;;;;;14.65;47.55;98751.94;5016672;28;20068;-36
2023/03/10 04:37:12;;;;;;;1.83;1.10;;;;;;;14.65;47.50;98750.09;5023031;28;20132;-37
2023/03/10 04:39:39;;;;;;;2.53;1.17;;;;;;;14.64;47.64;98751.09;5018852;28;20045;-36
2023/03/10 04:42:06;;;;;;;2.28;1.42;;;;;;;14.64;46.95;98750.28;5024863;28;20041;-36
2023/03/10 04:44:32;;;;;;;1.65;1.20;;;;;;;14.62;46.67;98746.94;5025362;28;20052;-35
2023/03/10 04:46:59;;;;;;;1.92;1.20;;;;;;;14.63;47.10;98760.09;5023523;28;20057;-35
2023/03/10 04:49:26;;;;;;;1.58;1.15;;;;;;;14.63;47.35;98759.25;5021032;28;20429;-35
2023/03/10 04:51:53;;;;;;;1.42;1.20;;;;;;;14.62;46.97;98754.94;5025535;28;20137;-37
2023/03/10 04:54:20;;;;;;;1.70;0.95;;;;;;;14.62;46.98;98752.28;5023403;28;20081;-36
2023/03/10 04:56:46;;;;;;;2.45;1.38;;;;;;;14.55;47.40;98757.50;5024048;28;20057;-36
2023/03/10 04:59:13;;;;;;;1.70;1.15;;;;;;;14.50;47.27;98763.38;5020747;28;20065;-36
2023/03/10 05:01:39;;;;;;;1.88;1.20;;;;;;;14.49;48.04;98768.91;5025221;28;20407;-37
2023/03/10 05:04:06;;;;;;;1.17;1.08;;;;;;;14.50;47.82;98775.88;5026547;28;20042;-37
2023/03/10 05:06:33;;;;;;;1.50;1.10;;;;;;;14.54;47.84;98774.53;5022540;28;20460;-36
2023/03/10 05:09:02;;;;;;;1.50;1.10;;;;;;;14.59;47.53;98780.13;5024554;28;20077;-37
2023/03/10 05:11:29;;;;;;;1.35;1.10;;;;;;;14.70;47.91;98769.03;5023661;28;20049;-37
2023/03/10 05:13:55;;;;;;;1.35;1.13;;;;;;;14.79;46.92;98767.09;5021101;28;20107;-38
2023/03/10 05:16:22;;;;;;;2.00;0.95;;;;;;;14.88;47.32;98766.00;5024963;28;20049;-36
2023/03/10 05:18:49;;;;;;;1.70;1.08;;;;;;;14.94;46.99;98764.44;5019852;28;20829;-36
2023/03/10 05:21:15;;;;;;;1.50;1.20;;;;;;;14.97;47.12;98764.06;5018656;28;20050;-36
2023/03/10 05:23:42;;;;;;;1.30;0.98;;;;;;;15.00;46.32;98758.38;5017998;28;20056;-36
2023/03/10 05:26:10;;;;;;;1.58;1.08;;;;;;;15.03;46.77;98757.97;5021000;28;20056;-37
2023/03/10 05:28:37;;;;;;;1.23;1.08;;;;;;;15.07;46.13;98759.25;5022063;28;20349;-37
2023/03/10 05:31:10;;;;;;;1.35;1.15;;;;;;;15.10;45.89;98750.91;5018343;28;20092;-36
2023/03/10 05:33:37;;;;;;;1.60;1.23;;;;;;;15.12;46.15;98756.91;5023606;28;20049;-36
2023/03/10 05:36:08;;;;;;;1.45;1.20;;;;;;;15.13;46.27;98758.53;5025735;28;20037;-38
2023/03/10 05:38:36;;;;;;;2.38;1.42;;;;;;;15.14;46.54;98754.84;5024737;28;20080;-37
2023/03/10 05:41:07;;;;;;;1.80;1.45;;;;;;;15.16;46.18;98757.34;5017453;28;20055;-36
2023/03/10 05:43:34;;;;;;;2.25;1.50;;;;;;;15.16;45.89;98750.16;5023413;28;20124;-37
2023/03/10 05:46:00;;;;;;;1.95;1.30;;;;;;;15.17;45.96;98743.00;5021683;28;20042;-37
2023/03/10 05:48:27;;;;;;;2.30;1.60;;;;;;;15.16;46.44;98731.50;5017780;28;20045;-36
2023/03/10 05:51:06;;;;;;;2.40;1.75;;;;;;;15.14;46.29;98741.50;5020079;28;20120;-36
2023/03/10 05:53:34;;;;;;;2.97;1.80;;;;;;;15.15;46.32;98745.81;5017527;28;20161;-36
2023/03/10 05:56:05;;;;;;;2.22;1.60;;;;;;;15.14;45.74;98746.84;5021338;28;20048;-36
2023/03/10 05:58:32;;;;;;;2.85;1.63;;;;;;;15.14;45.98;98741.50;5019067;28;20113;-37
2023/03/10 06:00:59;;;;;;;2.38;1.63;;;;;;;15.13;45.75;98739.03;5020437;28;20061;-36
2023/03/10 06:03:27;;;;;;;2.75;1.80;;;;;;;15.10;45.63;98742.91;5020803;28;20045;-35
2023/03/10 06:05:58;;;;;;;2.33;1.80;;;;;;;15.07;46.04;98743.25;5020279;28;20077;-36
2023/03/10 06:08:26;;;;;;;1.58;1.48;;;;;;;15.02;45.74;98748.34;5027218;28;20053;-38
2023/03/10 06:10:53;;;;;;;1.92;1.52;;;;;;;14.96;45.91;98741.91;5018970;28;20616;-35
2023/03/10 06:13:20;;;;;;;3.25;1.90;;;;;;;14.90;46.34;98744.47;5021590;28;20124;-36
2023/03/10 06:15:51;;;;;;;2.42;1.90;;;;;;;14.84;46.36;98745.22;5021040;28;20452;-36
2023/03/10 06:18:19;;;;;;;3.00;2.05;;;;;;;14.78;46.37;98746.78;5022257;28;20374;-37
2023/03/10 06:20:46;;;;;;;2.60;1.80;;;;;;;14.70;47.24;98741.53;5026654;28;20053;-36
2023/03/10 06:23:14;;;;;;;1.70;1.48;;;;;;;14.65;47.49;98755.41;5017894;28;20393;-36
2023/03/10 06:25:41;;;;;;;2.35;1.60;;;;;;;14.57;47.53;98752.84;5017143;28;20042;-37
2023/03/10 06:28:08;;;;;;;2.63;1.63;;;;;;;14.50;47.45;98758.06;5019089;28;20053;-36
2023/03/10 06:30:35;;;;;;;5.22;2.58;;;;;;;14.44;47.19;98757.94;5025903;28;20049;-36
2023/03/10 06:33:02;;;;;;;2.83;1.90;;;;;;;14.38;47.96;98758.66;5017717;28;20056;-36
2023/03/10 06:35:30;;;;;;;3.60;1.75;;;;;;;14.31;47.42;98745.22;5020468;28;20058;-36
2023/03/10 06:37:57;;;;;;;3.17;1.83;;;;;;;14.26;47.99;98750.25;5023210;28;20124;-36
2023/03/10 06:40:23;;;;;;;2.67;1.92;;;;;;;14.21;48.25;98753.47;5025664;28;20049;-36
2023/03/10 06:42:50;;;;;;;3.40;2.10;;;;;;;14.17;48.22;98746.03;5024084;28;20049;-36
2023/03/10 06:45:17;;;;;;;2.58;1.85;;;;;;;14.13;48.43;98747.38;5017017;28;20046;-36
2023/03/10 06:47:44;;;;;;;2.25;2.00;;;;;;;14.12;48.35;98746.56;5020092;28;20046;-36
2023/03/10 06:50:12;;;;;;;2.40;1.70;;;;;;;14.10;48.25;98737.91;5018284;28;20132;-35
2023/03/10 06:52:38;;;;;;;2.83;1.80;;;;;;;14.08;48.33;98747.94;5018482;28;20045;-35
2023/03/10 06:55:05;;;;;;;3.50;1.63;;;;;;;14.08;48.15;98747.94;5018689;28;20049;-36
2023/03/10 06:57:32;;;;;;;2.80;1.73;;;;;;;14.07;48.42;98743.63;5022457;28;20309;-36
2023/03/10 06:59:59;;;;;;;2.00;1.52;;;;;;;14.06;48.49;98742.75;5019362;28;20049;-37
2023/03/10 07:02:25;;;;;;;3.13;1.60;;;;;;;14.07;48.33;98740.97;5021678;28;20050;-35
2023/03/10 07:04:52;;;;;;;2.75;1.80;;;;;;;14.08;48.19;98740.75;5020436;28;20053;-35
2023/03/10 07:07:19;;;;;;;2.50;1.70;;;;;;;14.08;48.19;98738.09;5022997;28;20046;-35
2023/03/10 07:09:45;;;;;;;2.28;1.67;;;;;;;14.20;47.60;98751.81;5036379;28;20457;-35
2023/03/10 07:12:15;;;;;;;2.55;1.60;;;;;;;14.35;47.70;98743.00;5024752;28;20236;-35
2023/03/10 07:14:41;;;;;;;2.00;1.40;;;;;;;14.50;47.64;98742.06;5022214;28;20057;-36
2023/03/10 07:17:10;;;;;;;2.42;1.58;;;;;;;14.67;47.38;98748.03;5022401;28;20050;-37
2023/03/10 07:19:40;;;;;;;2.13;1.40;;;;;;;14.84;46.49;98748.72;5023156;28;20129;-36
2023/03/10 07:22:06;;;;;;;1.65;1.25;;;;;;;15.03;46.55;98757.97;5026530;28;20053;-37
2023/03/10 07:24:36;;;;;;;2.30;1.40;;;;;;;15.19;46.73;98759.63;5019969;28;20054;-36
2023/03/10 07:27:03;;;;;;;1.98;1.33;;;;;;;15.33;46.09;98763.31;5026018;28;20050;-37
2023/03/10 07:29:30;;;;;;;2.80;1.77;;;;;;;15.45;45.84;98756.47;5025568;28;20056;-36
2023/03/10 07:31:59;;;;;;;4.47;2.10;;;;;;;15.55;45.30;98765.81;5022365;28;20046;-36
2023/03/10 07:34:26;;;;;;;1.67;1.23;;;;;;;15.61;45.64;98758.09;5021604;28;20072;-39
2023/03/10 07:36:52;;;;;;;3.33;1.60;;;;;;;15.60;46.06;98765.28;5023387;28;20053;-37
2023/03/10 07:39:19;;;;;;;2.08;1.45;;;;;;;15.58;45.75;98759.28;5023132;28;20138;-37
2023/03/10 07:41:46;;;;;;;2.28;1.40;;;;;;;15.55;45.06;98768.47;5021951;28;20052;-37
2023/03/10 07:44:14;;;;;;;2.35;1.45;;;;;;;15.54;45.46;98766.84;5020996;28;20095;-36
2023/03/10 07:46:40;;;;;;;1.80;1.25;;;;;;;15.51;45.06;98761.88;5020284;28;20048;-36
2023/03/10 07:49:07;;;;;;;2.60;1.58;;;;;;;15.49;45.39;98763.09;5023216;28;20536;-36
2023/03/10 07:51:34;;;;;;;2.22;1.30;;;;;;;15.46;45.06;98779.47;5024721;28;20128;-35
2023/03/10 07:54:00;;;;;;;1.83;1.38;;;;;;;15.43;45.04;98779.84;5019432;28;20054;-35
2023/03/10 07:56:27;;;;;;;2.05;1.42;;;;;;;15.44;45.22;98782.34;5027666;28;20128;-36
2023/03/10 07:58:54;;;;;;;2.53;1.50;;;;;;;15.51;45.87;98791.22;5023667;28;20049;-36
2023/03/10 08:01:21;;;;;;;2.13;1.23;;;;;;;15.63;45.61;98786.22;5019657;28;20144;-35
2023/03/10 08:03:47;;;;;;;2.20;1.40;;;;;;;15.76;45.85;98790.94;5021271;28;20058;-36
2023/03/10 08:06:20;;;;;;;2.50;1.23;;;;;;;15.87;45.29;98797.63;5023831;28;20069;-36
2023/03/10 08:08:47;;;;;;;2.92;1.58;;;;;;;15.96;45.13;98801.81;5026318;28;20500;-38
2023/03/10 08:11:14;;;;;;;1.88;1.17;;;;;;;16.03;44.70;98802.72;5026239;28;20084;-35
2023/03/10 08:13:41;;;;;;;2.85;1.42;;;;;;;16.12;45.24;98808.75;5022965;28;20049;-35
2023/03/10 08:16:07;;;;;;;1.70;1.05;;;;;;;16.17;44.04;98799.16;5022389;28;20053;-36
2023/03/10 08:18:34;;;;;;;1.92;1.15;;;;;;;16.25;44.51;98806.22;5022682;28;20443;-37
2023/03/10 08:21:04;;;;;;;1.70;1.35;;;;;;;16.29;44.33;98807.50;5021573;28;20072;-35
2023/03/10 08:23:31;;;;;;;1.88;1.40;;;;;;;16.36;44.81;98799.53;5023132;28;20137;-36
2023/03/10 08:26:11;;;;;;;2.08;1.50;;;;;;;16.41;44.19;98791.78;5019054;28;20084;-36
2023/03/10 08:28:37;;;;;;;1.70;1.05;;;;;;;16.46;44.51;98800.03;5019530;28;20053;-36
2023/03/10 08:31:15;;;;;;;1.67;1.23;;;;;;;16.50;44.08;98804.78;5021503;28;20046;-35
2023/03/10 08:33:43;;;;;;;2.00;1.38;;;;;;;16.56;43.54;98799.69;5035463;28;20489;-35
2023/03/10 08:36:12;;;;;;;2.05;1.25;;;;;;;16.58;43.90;98801.16;5016904;28;20049;-37
2023/03/10 08:38:39;;;;;;;1.50;1.10;;;;;;;16.63;43.53;98798.72;5024091;28;20433;-35
2023/03/10 08:41:22;;;;;;;1.55;1.13;;;;;;;16.67;43.99;98805.31;5019456;28;20053;-36
2023/03/10 08:43:50;;;;;;;1.85;1.10;;;;;;;16.70;43.74;98796.91;5025943;28;20050;-37
2023/03/10 08:46:19;;;;;;;1.88;1.17;;;;;;;16.73;44.33;98793.91;5023698;28;20616;-39
2023/03/10 08:48:46;;;;;;;1.58;1.17;;;;;;;16.77;43.60;98795.16;5020094;28;20045;-36
2023/03/10 08:51:13;;;;;;;1.60;0.95;;;;;;;16.79;43.61;98794.94;5028774;28;20136;-35
2023/03/10 08:53:43;;;;;;;1.58;1.02;;;;;;;16.82;43.76;98794.56;5022184;28;20773;-36
2023/03/10 08:56:10;;;;;;;2.00;1.10;;;;;;;16.85;44.07;98804.06;5024114;28;20128;-36
2023/03/10 08:58:36;;;;;;;1.70;1.38;;;;;;;16.88;43.27;98798.28;5023876;28;20368;-36
2023/03/10 09:01:03;;;;;;;2.45;1.20;;;;;;;16.90;43.47;98801.63;5021915;28;20046;-35
2023/03/10 09:03:30;;;;;;;1.52;0.90;;;;;;;16.92;43.44;98802.22;5020138;28;20437;-37
2023/03/10 09:05:57;;;;;;;1.52;0.98;;;;;;;16.94;43.21;98809.06;5022117;28;20500;-37
2023/03/10 09:08:24;;;;;;;2.00;1.08;;;;;;;16.97;43.11;98818.56;5018429;28;20055;-36
2023/03/10 09:10:53;;;;;;;1.58;1.17;;;;;;;16.99;43.98;98814.63;5025144;28;20100;-37
2023/03/10 09:13:20;;;;;;;1.13;0.80;;;;;;;17.01;43.47;98823.31;5026962;28;20104;-36
2023/03/10 09:15:49;;;;;;;1.35;0.93;;;;;;;17.02;43.70;98822.28;5021699;28;20077;-36
2023/03/10 09:18:16;;;;;;;1.85;1.10;;;;;;;17.05;43.78;98817.56;5018918;28;20386;-37
2023/03/10 09:20:43;;;;;;;1.38;1.10;;;;;;;17.06;43.72;98812.00;5018449;28;20520;-38
2023/03/10 09:23:12;;;;;;;1.60;1.10;;;;;;;17.09;43.77;98821.50;5018284;28;20053;-38
2023/03/10 09:25:39;;;;;;;1.50;0.93;;;;;;;17.10;43.83;98815.13;5020646;28;20479;-38
2023/03/10 09:28:10;;;;;;;1.35;0.90;;;;;;;17.12;43.35;98802.34;5021733;28;20053;-37
2023/03/10 09:30:39;;;;;;;1.83;1.02;;;;;;;17.13;43.48;98806.72;5021626;28;20323;-40
2023/03/10 09:33:12;;;;;;;7.32;1.02;;;;;;;17.14;43.15;98808.34;5020563;28;20352;-35
2023/03/10 09:35:39;;;;;;;1.38;1.00;;;;;;;17.16;43.71;98806.28;5021825;28;20045;-35
2023/03/10 09:38:13;;;;;;;1.85;1.25;;;;;;;17.16;43.70;98815.13;5019968;28;20057;-35
2023/03/10 09:41:03;;;;;;;0.60;0.60;;;;;;;17.17;42.90;98829.38;5021047;28;20353;-36
2023/03/10 09:43:38;;;;;;;1.20;0.70;;;;;;;17.20;43.13;98811.03;5022850;28;20053;-36
2023/03/10 09:46:18;;;;;;;1.33;0.80;;;;;;;17.21;42.79;98826.09;5020958;28;20045;-36
2023/03/10 09:49:03;;;;;;;0.98;0.70;;;;;;;17.22;43.14;98830.44;5016687;28;20056;-35
2023/03/10 09:51:30;;;;;;;1.63;1.05;;;;;;;17.23;42.98;98837.44;5024448;28;20058;-36
2023/03/10 09:54:23;;;;;;;1.70;0.98;;;;;;;17.24;43.38;98838.25;5018701;28;20136;-36
2023/03/10 09:56:50;;;;;;;1.40;0.80;;;;;;;17.25;43.52;98843.44;5019614;28;20052;-37
2023/03/10 09:59:39;;;;;;;0.95;0.80;;;;;;;17.26;43.47;98837.03;5020368;28;20065;-36
2023/03/10 10:02:22;;;;;;;1.00;0.88;;;;;;;17.28;43.28;98844.88;5024732;28;20056;-37
2023/03/10 10:04:55;;;;;;;0.68;0.50;;;;;;;17.31;42.99;98854.38;5017015;28;20050;-37
2023/03/10 10:07:26;;;;;;;0.80;0.80;;;;;;;17.32;42.82;98848.81;5019640;28;20120;-39
2023/03/10 10:10:01;;;;;;;0.88;0.70;;;;;;;17.33;43.23;98852.34;5021666;28;20061;-37
2023/03/10 10:12:28;;;;;;;0.95;0.80;;;;;;;17.34;43.16;98864.69;5018912;28;20061;-36
2023/03/10 10:14:58;;;;;;;3.72;1.00;;;;;;;17.34;43.29;98870.88;5018437;28;20064;-37
2023/03/10 10:17:47;;;;;;;1.02;0.63;;;;;;;17.33;42.84;98871.91;5021954;28;20048;-36
2023/03/10 10:20:34;;;;;;;0.75;0.65;;;;;;;17.35;42.86;98877.03;5018480;28;20054;-37
2023/03/10 10:23:01;;;;;;;0.70;0.70;;;;;;;17.33;43.44;98873.75;5023021;28;20076;-36
2023/03/10 10:25:31;;;;;;;0.88;0.77;;;;;;;17.26;43.37;98877.19;5025156;28;20042;-36
2023/03/10 10:27:59;;;;;;;1.45;0.80;;;;;;;17.24;43.33;98884.59;5025025;28;20664;-35
2023/03/10 10:30:38;;;;;;;1.00;0.80;;;;;;;17.18;43.57;98887.25;5024178;28;20140;-36
2023/03/10 10:33:10;;;;;;;1.25;0.70;;;;;;;17.16;43.52;98890.09;5020762;28;20059;-35
2023/03/10 10:35:59;;;;;;;1.27;0.88;;;;;;;17.11;43.95;98889.88;5016878;28;20053;-36
2023/03/10 10:38:29;;;;;;;1.45;0.65;;;;;;;17.01;43.97;98889.41;5023153;28;20052;-36
2023/03/10 10:41:05;;;;;;;1.02;0.80;;;;;;;16.90;43.77;98880.03;5025078;28;20297;-37
2023/03/10 10:43:47;;;;;;;0.70;0.60;;;;;;;16.82;44.41;98872.16;5027837;28;20132;-36
2023/03/10 10:46:21;;;;;;;0.98;0.70;;;;;;;16.76;44.30;98884.47;5025904;28;20049;-37
2023/03/10 10:48:50;;;;;;;1.08;0.93;;;;;;;16.70;44.35;98887.88;5024144;28;20046;-36
2023/03/10 10:51:28;;;;;;;0.82;0.80;;;;;;;16.64;44.65;98895.81;5018947;28;20053;-36
2023/03/10 10:53:59;;;;;;;1.63;1.00;;;;;;;16.58;44.85;98902.78;5024772;28;20660;-38
2023/03/10 10:56:27;;;;;;;0.80;0.70;;;;;;;16.50;44.55;98897.56;5028671;28;20129;-36
2023/03/10 10:59:18;;;;;;;1.00;0.63;;;;;;;16.44;44.77;98909.00;5025505;28;20053;-36
2023/03/10 11:01:52;;;;;;;1.00;0.70;;;;;;;16.37;44.36;98913.50;5028070;28;20067;-36
2023/03/10 11:04:20;;;;;;;1.48;0.63;;;;;;;16.34;44.89;98908.50;5023145;28;20326;-38
2023/03/10 11:06:49;;;;;;;1.20;0.90;;;;;;;16.28;44.88;98902.91;5027685;28;20050;-36
2023/03/10 11:09:18;;;;;;;1.20;0.70;;;;;;;16.21;44.77;98904.69;5021653;28;20350;-36
2023/03/10 11:11:57;;;;;;;0.95;0.77;;;;;;;16.16;44.93;98915.13;5021121;28;20050;-35
2023/03/10 11:14:52;;;;;;;0.70;0.70;;;;;;;16.10;45.94;98905.16;5021548;28;20071;-36
2023/03/10 11:17:29;;;;;;;0.85;0.55;;;;;;;16.02;45.95;98908.78;5023659;28;20057;-36
2023/03/10 11:20:07;;;;;;;1.05;0.95;;;;;;;15.94;46.50;98898.19;5024814;28;20053;-37
2023/03/10 11:22:52;;;;;;;0.70;0.70;;;;;;;15.91;46.09;98911.09;5019236;28;20103;-35
2023/03/10 11:25:35;;;;;;;1.13;0.68;;;;;;;15.83;45.78;98904.00;5020970;28;20061;-36
2023/03/10 11:28:17;;;;;;;0.85;0.70;;;;;;;15.85;46.30;98904.69;5024466;28;20455;-36
2023/03/10 11:31:09;;;;;;;0.90;0.70;;;;;;;15.92;45.62;98900.25;5024748;28;20051;-35
2023/03/10 11:33:47;;;;;;;1.50;0.80;;;;;;;16.09;46.13;98898.19;5021646;28;20045;-36
2023/03/10 11:36:46;;;;;;;1.23;0.80;;;;;;;16.25;45.35;98903.28;5029882;28;20053;-36
2023/03/10 11:39:38;;;;;;;0.77;0.73;;;;;;;16.41;45.07;98899.53;5022232;28;20054;-36
2023/03/10 11:42:30;;;;;;;1.67;1.05;;;;;;;16.54;45.62;98890.81;5024882;28;20050;-36
2023/03/10 11:45:18;;;;;;;0.90;0.75;;;;;;;16.65;44.98;98894.84;5028617;28;20052;-36